Time;durP1;ratioP1;P1;durP2;ratioP2;P2;SDS_P1;SDS_P2;PMS_P1;PMS_P2;Temp;Humidity;BMP_temperature;BMP_pressure;BME280_temperature;BME280_humidity;BME280_pressure;Samples;Min_cycle;Max_cycle;Signal;HPM_P1;HPM_P2
2022/05/14 00:01:06;;;;;;;17.15;4.15;;;12.50;99.90;;;;;;5082705;28;20043;-66
2022/05/14 00:03:33;;;;;;;18.67;4.63;;;12.50;99.90;;;;;;5099177;27;20420;-67
2022/05/14 00:06:05;;;;;;;22.90;4.40;;;12.50;99.90;;;;;;5106371;27;20043;-67
2022/05/14 00:08:31;;;;;;;22.48;4.80;;;12.50;99.90;;;;;;5119359;27;20109;-66
2022/05/14 00:13:43;;;;;;;18.67;3.85;;;12.40;99.90;;;;;;5121501;27;20054;-66
2022/05/14 00:16:10;;;;;;;19.45;4.47;;;12.50;99.90;;;;;;5093473;27;20039;-66
2022/05/14 00:18:36;;;;;;;24.25;5.63;;;12.40;99.90;;;;;;5104936;27;20574;-67
2022/05/14 00:21:03;;;;;;;20.45;4.78;;;12.40;99.90;;;;;;5110399;27;20039;-66
2022/05/14 00:23:29;;;;;;;21.13;3.85;;;12.40;99.90;;;;;;5091554;28;20100;-66
2022/05/14 00:25:55;;;;;;;17.95;4.80;;;12.40;99.90;;;;;;5104124;28;20477;-66
2022/05/14 00:28:21;;;;;;;23.55;4.90;;;12.40;99.90;;;;;;5100984;27;20612;-68
2022/05/14 00:30:48;;;;;;;21.60;5.18;;;12.30;99.90;;;;;;5136254;27;20038;-67
2022/05/14 00:33:13;;;;;;;18.08;4.63;;;12.30;99.90;;;;;;5125215;27;20419;-69
2022/05/14 00:35:39;;;;;;;19.70;5.05;;;12.30;99.90;;;;;;5101582;27;20104;-67
2022/05/14 00:38:08;;;;;;;20.45;4.28;;;12.20;99.90;;;;;;5127728;27;20035;-66
2022/05/14 00:40:46;;;;;;;22.58;4.35;;;12.40;99.90;;;;;;5099563;28;20615;-67
2022/05/14 00:43:13;;;;;;;14.27;4.22;;;12.30;99.90;;;;;;5116448;27;20345;-67
2022/05/14 00:45:41;;;;;;;20.77;4.60;;;12.30;99.90;;;;;;5112174;27;20504;-66
2022/05/14 00:48:10;;;;;;;27.90;5.15;;;12.20;99.90;;;;;;5116057;27;20038;-66
2022/05/14 00:50:41;;;;;;;21.30;4.70;;;12.20;99.90;;;;;;5127639;27;20035;-66
2022/05/14 00:53:31;;;;;;;22.55;4.95;;;12.20;99.90;;;;;;5092921;28;20130;-67
2022/05/14 00:56:01;;;;;;;21.58;4.75;;;12.20;99.90;;;;;;5100763;28;20054;-67
2022/05/14 00:58:44;;;;;;;24.08;5.63;;;12.20;99.90;;;;;;5096200;28;20043;-67
2022/05/14 01:01:10;;;;;;;27.42;6.22;;;12.20;99.90;;;;;;5096300;28;20419;-67
2022/05/14 01:03:36;;;;;;;28.23;5.97;;;12.20;99.90;;;;;;5095929;28;20043;-67
2022/05/14 01:06:04;;;;;;;31.58;5.85;;;12.60;99.90;;;;;;5102501;28;20072;-68
2022/05/14 01:08:31;;;;;;;33.25;6.68;;;12.20;99.90;;;;;;5109892;28;20049;-67
2022/05/14 01:10:57;;;;;;;23.23;6.82;;;12.20;99.90;;;;;;5092255;28;20073;-68
2022/05/14 01:13:23;;;;;;;28.23;5.63;;;12.30;99.90;;;;;;5109296;27;20043;-68
2022/05/14 01:15:53;;;;;;;23.83;5.93;;;12.20;99.90;;;;;;5123772;28;20047;-68
2022/05/14 01:18:22;;;;;;;27.15;5.80;;;12.30;99.90;;;;;;5108274;27;20046;-67
2022/05/14 01:20:55;;;;;;;28.75;6.30;;;12.20;99.90;;;;;;5126837;27;20488;-67
2022/05/14 01:23:27;;;;;;;28.20;6.00;;;12.30;99.90;;;;;;5084296;27;20449;-67
2022/05/14 01:26:28;;;;;;;21.60;6.25;;;12.20;99.90;;;;;;5128944;27;20047;-68
2022/05/14 01:28:56;;;;;;;21.33;5.90;;;12.20;99.90;;;;;;5120537;27;20049;-68
2022/05/14 01:31:22;;;;;;;26.30;5.75;;;12.20;99.90;;;;;;5113786;27;20043;-68
2022/05/14 01:33:48;;;;;;;21.83;5.68;;;12.20;99.90;;;;;;5081768;27;20055;-67
2022/05/14 01:36:14;;;;;;;26.80;6.10;;;12.10;99.90;;;;;;5113278;27;20095;-68
2022/05/14 01:38:40;;;;;;;26.08;5.80;;;12.10;99.90;;;;;;5129456;27;20042;-67
2022/05/14 01:41:06;;;;;;;22.52;5.68;;;12.00;99.90;;;;;;5114443;27;20396;-67
2022/05/14 01:43:32;;;;;;;23.55;5.55;;;12.00;99.90;;;;;;5130548;27;20031;-67
2022/05/14 01:45:58;;;;;;;23.55;6.13;;;12.00;99.90;;;;;;5104808;28;20051;-70
2022/05/14 01:48:24;;;;;;;33.08;6.60;;;12.00;99.90;;;;;;5122011;27;20553;-67
2022/05/14 01:50:49;;;;;;;30.70;6.45;;;11.90;99.90;;;;;;5080918;28;20303;-68
2022/05/14 01:53:15;;;;;;;26.80;6.47;;;12.00;99.90;;;;;;5078933;27;20188;-67
2022/05/14 01:55:41;;;;;;;26.17;6.30;;;11.90;99.90;;;;;;5130959;27;20472;-67
2022/05/14 02:00:51;;;;;;;26.52;6.43;;;11.90;99.90;;;;;;5110952;27;20051;-68
2022/05/14 02:03:17;;;;;;;25.02;6.38;;;11.80;99.90;;;;;;5110567;27;20047;-67
2022/05/14 02:05:43;;;;;;;27.20;5.85;;;11.80;99.90;;;;;;5128285;27;20519;-68
2022/05/14 02:08:09;;;;;;;25.27;6.50;;;11.70;99.90;;;;;;5135386;27;20087;-67
2022/05/14 02:10:35;;;;;;;28.25;6.30;;;11.70;99.90;;;;;;5113963;27;20058;-67
2022/05/14 02:13:00;;;;;;;31.98;7.95;;;11.60;99.90;;;;;;5124486;27;20051;-68
2022/05/14 02:15:26;;;;;;;34.40;6.85;;;11.60;99.90;;;;;;5104173;27;20047;-67
2022/05/14 02:17:51;;;;;;;23.33;6.70;;;11.50;99.90;;;;;;5104126;27;20045;-67
2022/05/14 02:20:17;;;;;;;32.40;6.55;;;11.50;99.90;;;;;;5130326;27;20043;-67
2022/05/14 02:22:44;;;;;;;31.05;6.53;;;11.40;99.90;;;;;;5098067;27;20061;-67
2022/05/14 02:25:10;;;;;;;21.80;6.60;;;11.40;99.90;;;;;;5109804;27;20513;-67
2022/05/14 02:27:37;;;;;;;22.85;6.90;;;11.30;99.90;;;;;;5085079;27;20051;-67
2022/05/14 02:30:03;;;;;;;27.58;6.85;;;11.30;99.90;;;;;;5121318;27;20038;-68
2022/05/14 02:32:29;;;;;;;22.40;6.45;;;11.20;99.90;;;;;;5151601;27;20362;-68
2022/05/14 02:34:57;;;;;;;30.63;7.22;;;11.20;99.90;;;;;;5082158;27;20093;-67
2022/05/14 02:37:26;;;;;;;30.95;7.18;;;11.10;99.90;;;;;;5107422;28;20040;-67
2022/05/14 02:39:52;;;;;;;31.35;6.85;;;11.10;99.90;;;;;;5110663;27;20458;-68
2022/05/14 02:42:18;;;;;;;32.75;7.45;;;11.10;99.90;;;;;;5128185;27;20047;-67
2022/05/14 02:44:44;;;;;;;28.52;6.28;;;11.00;99.90;;;;;;5110301;27;20100;-68
2022/05/14 02:47:10;;;;;;;26.05;7.43;;;11.00;99.90;;;;;;5103976;28;20044;-67
2022/05/14 02:49:36;;;;;;;31.45;7.93;;;11.00;99.90;;;;;;5112066;27;20130;-68
2022/05/14 02:52:03;;;;;;;29.40;7.72;;;10.90;99.90;;;;;;5125975;27;20404;-67
2022/05/14 02:54:29;;;;;;;30.98;6.70;;;10.90;99.90;;;;;;5100418;27;20115;-67
2022/05/14 02:56:56;;;;;;;33.30;6.75;;;10.90;99.90;;;;;;5109129;27;20110;-67
2022/05/14 02:59:22;;;;;;;30.50;7.22;;;10.90;99.90;;;;;;5129060;27;20111;-67
2022/05/14 03:01:50;;;;;;;25.90;7.28;;;10.80;99.90;;;;;;5111473;27;20051;-67
2022/05/14 03:04:18;;;;;;;28.17;7.00;;;10.80;99.90;;;;;;5094995;27;20050;-67
2022/05/14 03:06:44;;;;;;;26.20;6.75;;;10.70;99.90;;;;;;5108869;27;20039;-67
2022/05/14 03:09:10;;;;;;;27.00;7.10;;;10.70;99.90;;;;;;5087742;28;20327;-67
2022/05/14 03:11:36;;;;;;;31.17;7.38;;;10.70;99.90;;;;;;5094815;27;20036;-67
2022/05/14 03:14:01;;;;;;;25.70;7.05;;;10.70;99.90;;;;;;5107499;27;20427;-67
2022/05/14 03:16:28;;;;;;;30.10;7.45;;;10.70;99.90;;;;;;5127696;27;20050;-67
2022/05/14 03:18:54;;;;;;;34.05;9.07;;;10.60;99.90;;;;;;5109890;27;20043;-67
2022/05/14 03:21:20;;;;;;;31.38;7.78;;;10.60;99.90;;;;;;5129397;27;20092;-67
2022/05/14 03:23:46;;;;;;;30.30;7.70;;;10.60;99.90;;;;;;5127458;27;20054;-67
2022/05/14 03:26:11;;;;;;;38.85;7.88;;;10.50;99.90;;;;;;5108625;27;20496;-67
2022/05/14 03:28:37;;;;;;;29.67;7.93;;;10.50;99.90;;;;;;5101083;28;20398;-67
2022/05/14 03:31:03;;;;;;;39.83;7.90;;;10.50;99.90;;;;;;5137705;27;20388;-67
2022/05/14 03:33:31;;;;;;;34.20;7.75;;;10.40;99.90;;;;;;5115330;27;20089;-67
2022/05/14 03:35:57;;;;;;;27.98;7.63;;;10.40;99.90;;;;;;5088569;27;20130;-67
2022/05/14 03:38:23;;;;;;;34.45;8.27;;;10.40;99.90;;;;;;5111204;27;20245;-68
2022/05/14 03:40:48;;;;;;;31.58;8.43;;;10.40;99.90;;;;;;5088121;28;20496;-67
2022/05/14 03:43:15;;;;;;;24.88;8.05;;;10.40;99.90;;;;;;5079472;27;20452;-67
2022/05/14 03:45:41;;;;;;;33.90;8.77;;;10.50;99.90;;;;;;5126917;27;20532;-67
2022/05/14 03:48:07;;;;;;;36.63;8.55;;;10.40;99.90;;;;;;5087870;27;20051;-67
2022/05/14 03:50:36;;;;;;;40.08;8.75;;;10.40;99.90;;;;;;5107343;27;20043;-67
2022/05/14 03:53:01;;;;;;;36.55;8.27;;;10.40;99.90;;;;;;5094147;27;20043;-67
2022/05/14 03:55:27;;;;;;;29.08;7.55;;;10.40;99.90;;;;;;5100650;27;20092;-68
2022/05/14 03:57:53;;;;;;;40.08;8.88;;;10.60;99.90;;;;;;5127187;27;20437;-67
2022/05/14 04:00:19;;;;;;;27.63;7.70;;;10.40;99.90;;;;;;5124773;27;20385;-67
2022/05/14 04:02:46;;;;;;;32.60;8.73;;;10.50;99.90;;;;;;5102745;27;20043;-67
2022/05/14 04:05:13;;;;;;;30.45;7.93;;;10.50;99.90;;;;;;5127372;27;20365;-67
2022/05/14 04:07:43;;;;;;;34.08;8.68;;;10.50;99.90;;;;;;5110162;27;20039;-68
2022/05/14 04:10:12;;;;;;;33.00;8.10;;;10.50;99.90;;;;;;5127610;27;20122;-67
2022/05/14 04:12:38;;;;;;;27.23;7.50;;;10.50;99.90;;;;;;5104655;27;20069;-67
2022/05/14 04:15:05;;;;;;;31.77;8.40;;;10.50;99.90;;;;;;5128650;27;20041;-67
2022/05/14 04:17:31;;;;;;;34.30;7.60;;;10.50;99.90;;;;;;5105997;27;20508;-67
2022/05/14 04:19:56;;;;;;;29.13;8.50;;;10.50;99.90;;;;;;5104846;28;20114;-67
2022/05/14 04:22:22;;;;;;;42.83;9.02;;;10.60;99.90;;;;;;5090309;28;20556;-67
2022/05/14 04:24:48;;;;;;;35.15;8.57;;;10.60;99.90;;;;;;5096980;27;20451;-67
2022/05/14 04:27:14;;;;;;;36.92;9.10;;;10.70;99.90;;;;;;5110423;27;20066;-67
2022/05/14 04:29:39;;;;;;;31.83;9.88;;;10.70;99.90;;;;;;5103298;27;20066;-67
2022/05/14 04:32:06;;;;;;;34.65;8.52;;;10.90;99.90;;;;;;5114217;27;20040;-68
2022/05/14 04:34:32;;;;;;;28.80;7.85;;;11.20;99.90;;;;;;5096135;27;20083;-67
2022/05/14 04:36:57;;;;;;;33.60;8.90;;;11.70;99.90;;;;;;5128157;27;20046;-67
2022/05/14 04:39:31;;;;;;;35.83;9.70;;;11.90;99.90;;;;;;5126468;27;20035;-67
2022/05/14 04:42:05;;;;;;;31.67;8.25;;;12.00;99.90;;;;;;5109878;27;20512;-67
2022/05/14 04:44:32;;;;;;;25.17;7.15;;;12.60;99.90;;;;;;5091157;28;20047;-68
2022/05/14 04:46:58;;;;;;;36.47;8.15;;;13.30;99.90;;;;;;5122097;27;20043;-68
2022/05/14 04:49:24;;;;;;;25.65;7.43;;;13.90;99.90;;;;;;5094838;28;20093;-67
2022/05/14 04:51:50;;;;;;;31.83;7.30;;;14.60;99.90;;;;;;5085420;27;20054;-68
2022/05/14 04:54:15;;;;;;;23.95;6.45;;;15.10;99.90;;;;;;5110398;27;20043;-68
2022/05/14 04:56:42;;;;;;;26.70;7.10;;;15.70;99.90;;;;;;5119500;27;20078;-67
2022/05/14 04:59:08;;;;;;;19.08;6.35;;;16.30;99.90;;;;;;5097473;28;20051;-67
2022/05/14 05:01:34;;;;;;;30.92;7.30;;;17.00;99.90;;;;;;5090282;27;20039;-67
2022/05/14 05:04:00;;;;;;;28.40;6.45;;;17.50;99.90;;;;;;5111454;27;20422;-67
2022/05/14 05:06:27;;;;;;;21.88;5.75;;;17.90;99.90;;;;;;5101567;28;20048;-66
2022/05/14 05:08:52;;;;;;;30.05;6.82;;;18.40;99.90;;;;;;5113504;27;20031;-67
2022/05/14 05:11:19;;;;;;;25.08;6.38;;;18.90;99.90;;;;;;5094574;28;20398;-67
2022/05/14 05:13:44;;;;;;;27.73;5.85;;;19.10;99.90;;;;;;5098838;28;20059;-66
2022/05/14 05:16:10;;;;;;;23.88;5.68;;;18.80;99.90;;;;;;5103942;27;20507;-66
2022/05/14 05:18:36;;;;;;;26.58;6.82;;;18.10;99.90;;;;;;5108297;28;20121;-67
2022/05/14 05:21:02;;;;;;;27.90;6.00;;;17.10;99.90;;;;;;5110055;28;20035;-66
2022/05/14 05:23:28;;;;;;;24.52;6.47;;;16.50;99.90;;;;;;5123873;28;20043;-67
2022/05/14 05:25:55;;;;;;;22.85;5.88;;;16.00;99.90;;;;;;5109177;28;20115;-67
2022/05/14 05:28:21;;;;;;;25.42;6.50;;;15.60;99.90;;;;;;5115936;27;20043;-66
2022/05/14 05:30:48;;;;;;;28.00;5.97;;;15.30;99.90;;;;;;5122382;27;20103;-68
2022/05/14 05:33:16;;;;;;;29.92;5.85;;;15.10;99.90;;;;;;5104128;28;20466;-67
2022/05/14 05:35:42;;;;;;;25.25;6.40;;;14.90;99.90;;;;;;5095697;28;20498;-66
2022/05/14 05:38:08;;;;;;;23.90;6.85;;;15.00;99.90;;;;;;5082262;28;20461;-67
2022/05/14 05:40:34;;;;;;;21.02;5.68;;;15.20;99.90;;;;;;5124735;28;20041;-67
2022/05/14 05:43:00;;;;;;;28.05;6.80;;;15.10;99.90;;;;;;5120500;28;20066;-67
2022/05/14 05:45:26;;;;;;;29.85;6.90;;;14.90;99.90;;;;;;5107885;27;20032;-67
2022/05/14 05:47:52;;;;;;;25.95;6.70;;;14.70;99.90;;;;;;5088958;28;20035;-66
2022/05/14 05:50:17;;;;;;;27.85;6.90;;;14.60;99.90;;;;;;5083009;28;20046;-66
2022/05/14 05:52:43;;;;;;;22.52;6.88;;;14.60;99.90;;;;;;5106302;27;20132;-66
2022/05/14 05:57:53;;;;;;;33.67;7.35;;;15.30;99.90;;;;;;5088537;28;20063;-67
2022/05/14 06:00:23;;;;;;;25.13;6.90;;;15.70;99.90;;;;;;5110173;27;20046;-67
2022/05/14 06:02:49;;;;;;;32.22;6.25;;;15.80;99.90;;;;;;5096466;27;20057;-66
2022/05/14 06:05:16;;;;;;;28.23;6.32;;;15.70;99.90;;;;;;5073662;27;20734;-66
2022/05/14 06:07:42;;;;;;;22.75;6.15;;;15.60;99.90;;;;;;5097761;27;20042;-68
2022/05/14 06:10:11;;;;;;;28.02;5.70;;;15.50;99.90;;;;;;5120919;27;20451;-67
2022/05/14 06:12:38;;;;;;;28.38;6.13;;;15.50;99.90;;;;;;5077681;28;20457;-67
2022/05/14 06:15:09;;;;;;;27.17;5.82;;;15.50;99.90;;;;;;5076747;27;20047;-67
2022/05/14 06:17:35;;;;;;;31.10;5.65;;;15.40;99.90;;;;;;5086478;27;20036;-67
2022/05/14 06:20:06;;;;;;;27.98;5.40;;;15.40;99.90;;;;;;5100913;27;20058;-68
2022/05/14 06:22:31;;;;;;;24.13;5.10;;;15.30;99.90;;;;;;5092866;27;20278;-66
2022/05/14 06:24:57;;;;;;;24.75;5.22;;;15.30;99.90;;;;;;5095870;27;20067;-66
2022/05/14 06:27:23;;;;;;;27.25;5.50;;;15.70;99.90;;;;;;5102708;27;20601;-66
2022/05/14 06:29:48;;;;;;;23.67;5.10;;;15.80;99.90;;;;;;5100917;28;20062;-66
2022/05/14 06:32:14;;;;;;;18.65;4.80;;;15.80;99.90;;;;;;5100108;27;20071;-66
2022/05/14 06:34:40;;;;;;;24.38;4.82;;;16.30;99.90;;;;;;5106647;27;20104;-66
2022/05/14 06:37:05;;;;;;;27.52;5.10;;;16.60;99.90;;;;;;5090246;27;20555;-66
2022/05/14 06:39:31;;;;;;;21.42;4.70;;;16.50;99.90;;;;;;5105420;27;20182;-66
2022/05/14 06:41:57;;;;;;;20.85;4.35;;;16.50;99.90;;;;;;5115998;27;20047;-66
2022/05/14 06:44:23;;;;;;;20.52;4.30;;;16.40;99.90;;;;;;5081749;27;20445;-66
2022/05/14 06:46:49;;;;;;;21.45;5.30;;;16.30;99.90;;;;;;5120806;27;20027;-67
2022/05/14 06:49:15;;;;;;;19.00;4.50;;;16.20;99.90;;;;;;5094550;27;20420;-67
2022/05/14 06:51:41;;;;;;;23.80;4.70;;;16.10;99.90;;;;;;5107335;27;20039;-67
2022/05/14 06:54:11;;;;;;;31.50;5.60;;;16.00;99.90;;;;;;5100436;27;20418;-67
2022/05/14 06:56:41;;;;;;;23.17;4.78;;;15.90;99.90;;;;;;5082978;27;20051;-67
2022/05/14 06:59:07;;;;;;;18.47;4.17;;;15.90;99.90;;;;;;5112095;27;20150;-67
2022/05/14 07:01:37;;;;;;;22.33;5.03;;;15.90;99.90;;;;;;5094738;27;20051;-67
2022/05/14 07:06:51;;;;;;;18.67;4.10;;;16.00;99.90;;;;;;5096916;27;20112;-67
2022/05/14 07:09:22;;;;;;;25.23;4.40;;;16.00;99.90;;;;;;5089255;27;20039;-66
2022/05/14 07:11:51;;;;;;;22.55;4.93;;;16.00;99.90;;;;;;5092197;27;20385;-67
2022/05/14 07:14:17;;;;;;;21.67;4.50;;;16.10;99.90;;;;;;5087792;27;20047;-67
2022/05/14 07:16:45;;;;;;;22.50;5.10;;;16.30;99.90;;;;;;5072002;27;20055;-67
2022/05/14 07:19:11;;;;;;;23.48;5.28;;;16.40;99.90;;;;;;5091039;27;20036;-67
2022/05/14 07:21:40;;;;;;;21.20;3.97;;;16.70;99.90;;;;;;5114130;27;20035;-67
2022/05/14 07:24:07;;;;;;;21.40;5.00;;;16.90;99.90;;;;;;5076859;27;20471;-67
2022/05/14 07:26:37;;;;;;;26.33;5.40;;;17.40;99.90;;;;;;5120230;27;20050;-67
2022/05/14 07:29:14;;;;;;;19.80;4.32;;;17.80;99.90;;;;;;5105825;27;20036;-66
2022/05/14 07:31:41;;;;;;;21.70;5.75;;;18.30;99.90;;;;;;5091662;27;20141;-66
2022/05/14 07:34:07;;;;;;;18.50;4.55;;;18.70;99.90;;;;;;5110527;27;20043;-67
2022/05/14 07:36:46;;;;;;;18.48;4.75;;;19.60;99.90;;;;;;5115961;27;20046;-67
2022/05/14 07:39:13;;;;;;;22.85;4.82;;;20.30;99.90;;;;;;5094688;27;20081;-66
2022/05/14 07:41:42;;;;;;;25.67;4.43;;;20.50;99.90;;;;;;5106459;27;20075;-67
2022/05/14 07:44:11;;;;;;;23.38;4.80;;;20.50;99.90;;;;;;5091680;27;20043;-66
2022/05/14 07:46:38;;;;;;;18.25;4.25;;;20.50;99.90;;;;;;5082532;27;20744;-68
2022/05/14 07:49:10;;;;;;;20.58;4.00;;;20.40;99.90;;;;;;5108832;27;20135;-69
2022/05/14 07:51:36;;;;;;;20.23;4.90;;;20.50;99.90;;;;;;5074811;27;20852;-66
2022/05/14 07:54:03;;;;;;;22.20;5.20;;;20.70;99.90;;;;;;5112643;27;21183;-67
2022/05/14 07:56:32;;;;;;;17.83;3.88;;;20.90;99.90;;;;;;5074817;27;20441;-68
2022/05/14 07:58:58;;;;;;;19.52;4.70;;;21.00;99.90;;;;;;5105307;27;20158;-68
2022/05/14 08:01:24;;;;;;;19.23;3.83;;;21.10;99.90;;;;;;5085230;27;20044;-68
2022/05/14 08:03:51;;;;;;;24.08;4.68;;;21.30;99.90;;;;;;5103725;27;20043;-68
2022/05/14 08:06:17;;;;;;;17.00;4.13;;;21.40;99.90;;;;;;5068240;27;20039;-67
2022/05/14 08:08:44;;;;;;;19.88;4.57;;;21.50;99.90;;;;;;5064177;27;20051;-66
2022/05/14 08:11:10;;;;;;;21.88;4.15;;;21.60;99.90;;;;;;5084355;27;20048;-67
2022/05/14 08:13:37;;;;;;;18.38;4.32;;;21.50;99.90;;;;;;5086062;27;20445;-67
2022/05/14 08:16:04;;;;;;;21.48;4.13;;;21.40;99.90;;;;;;5105753;27;20433;-67
2022/05/14 08:18:30;;;;;;;24.17;4.93;;;21.60;99.90;;;;;;5109802;27;20064;-67
2022/05/14 08:20:56;;;;;;;20.50;4.28;;;21.90;99.90;;;;;;5087076;27;21737;-68
2022/05/14 08:26:08;;;;;;;15.73;3.55;;;22.00;99.90;;;;;;5081693;27;20050;-67
2022/05/14 08:28:34;;;;;;;15.57;3.95;;;22.10;99.90;;;;;;5085123;28;20094;-67
2022/05/14 08:31:00;;;;;;;18.63;4.32;;;22.20;99.90;;;;;;5110315;27;20043;-67
2022/05/14 08:33:28;;;;;;;21.42;4.43;;;22.50;99.90;;;;;;5085052;27;20043;-68
2022/05/14 08:35:54;;;;;;;15.80;3.22;;;22.60;99.90;;;;;;5100142;27;20050;-65
2022/05/14 08:38:23;;;;;;;19.67;4.78;;;22.70;99.90;;;;;;5107687;27;20044;-67
2022/05/14 08:40:59;;;;;;;17.10;4.15;;;23.00;99.90;;;;;;5087803;27;20526;-66
2022/05/14 08:43:32;;;;;;;16.80;3.95;;;23.20;99.90;;;;;;5069593;27;20255;-67
2022/05/14 08:45:59;;;;;;;19.42;4.28;;;23.20;99.90;;;;;;5112628;27;20039;-67
2022/05/14 08:48:32;;;;;;;21.83;4.15;;;22.80;99.90;;;;;;5091727;27;20395;-66
2022/05/14 08:51:17;;;;;;;17.38;4.03;;;22.70;99.90;;;;;;5079229;28;20035;-66
2022/05/14 08:53:46;;;;;;;16.00;3.55;;;22.90;99.90;;;;;;5096382;27;20044;-67
2022/05/14 08:56:24;;;;;;;19.75;4.70;;;22.90;99.90;;;;;;5095966;28;20047;-67
2022/05/14 08:59:03;;;;;;;17.08;3.72;;;23.00;99.90;;;;;;5099382;27;20047;-67
2022/05/14 09:01:33;;;;;;;23.05;4.50;;;22.90;99.90;;;;;;5093877;28;20051;-65
2022/05/14 09:03:59;;;;;;;18.33;4.30;;;22.50;99.90;;;;;;5109334;27;20039;-67
2022/05/14 09:06:25;;;;;;;17.88;4.07;;;21.90;99.90;;;;;;5089289;28;20031;-67
2022/05/14 09:08:51;;;;;;;18.90;3.95;;;21.40;99.90;;;;;;5093298;28;20046;-67
2022/05/14 09:11:26;;;;;;;15.48;3.72;;;21.00;99.90;;;;;;5089554;28;20047;-67
2022/05/14 09:13:58;;;;;;;19.65;4.50;;;20.90;99.90;;;;;;5072165;28;20048;-67
2022/05/14 09:16:30;;;;;;;15.82;3.78;;;20.80;99.90;;;;;;5092002;28;20054;-67
2022/05/14 09:18:57;;;;;;;16.98;4.35;;;21.00;99.90;;;;;;5095574;27;20083;-66
2022/05/14 09:21:35;;;;;;;15.23;4.15;;;21.30;99.90;;;;;;5108271;27;20115;-67
2022/05/14 09:24:14;;;;;;;17.27;4.10;;;21.30;99.90;;;;;;5087788;28;20055;-67
2022/05/14 09:26:41;;;;;;;16.55;3.60;;;20.90;99.90;;;;;;5112896;27;20062;-66
2022/05/14 09:29:27;;;;;;;20.50;4.30;;;20.50;99.90;;;;;;5110230;27;20039;-67
2022/05/14 09:32:00;;;;;;;14.63;3.65;;;20.30;99.90;;;;;;5073678;27;20400;-67
2022/05/14 09:34:29;;;;;;;17.95;4.03;;;20.00;99.90;;;;;;5092088;27;20082;-67
2022/05/14 09:37:05;;;;;;;19.40;4.03;;;20.30;99.90;;;;;;5090452;28;20120;-67
2022/05/14 09:39:31;;;;;;;16.42;3.85;;;20.90;99.90;;;;;;5113372;27;20135;-67
2022/05/14 09:42:01;;;;;;;20.92;4.70;;;21.40;99.90;;;;;;5079875;27;20039;-67
2022/05/14 09:44:39;;;;;;;17.45;3.95;;;21.90;99.90;;;;;;5101371;27;20445;-68
2022/05/14 09:47:10;;;;;;;19.05;5.47;;;22.50;99.90;;;;;;5094040;27;20597;-67
2022/05/14 09:49:41;;;;;;;18.48;3.95;;;23.00;99.90;;;;;;5076090;27;20396;-67
2022/05/14 09:52:11;;;;;;;19.65;4.55;;;22.90;96.50;;;;;;5098683;27;20050;-67
2022/05/14 09:54:36;;;;;;;15.27;4.28;;;22.30;93.30;;;;;;5117511;27;20050;-67
2022/05/14 09:57:17;;;;;;;23.30;4.00;;;21.90;96.70;;;;;;5086438;27;20039;-67
2022/05/14 10:00:05;;;;;;;17.45;4.22;;;21.60;98.20;;;;;;5078249;27;20119;-67
2022/05/14 10:02:57;;;;;;;18.35;4.38;;;21.70;98.30;;;;;;5085971;27;20508;-67
2022/05/14 10:05:55;;;;;;;15.57;4.57;;;22.10;98.60;;;;;;5094518;27;20042;-67
2022/05/14 10:08:50;;;;;;;22.38;4.57;;;22.50;94.40;;;;;;5100910;27;20043;-68
2022/05/14 10:11:24;;;;;;;14.80;4.18;;;23.00;97.00;;;;;;5080459;27;20657;-67
2022/05/14 10:13:54;;;;;;;20.00;4.63;;;23.00;92.60;;;;;;5094732;27;20047;-66
2022/05/14 10:16:44;;;;;;;18.27;4.32;;;23.00;93.00;;;;;;5095983;27;20046;-67
2022/05/14 10:19:21;;;;;;;21.40;4.07;;;22.70;94.40;;;;;;5111198;27;20516;-66
2022/05/14 10:21:53;;;;;;;17.83;4.10;;;22.30;95.90;;;;;;5109816;27;20122;-67
2022/05/14 10:28:00;;;;;;;20.05;4.28;;;21.50;96.70;;;;;;5102455;27;20142;-67
2022/05/14 10:30:34;;;;;;;18.10;4.10;;;20.90;98.50;;;;;;5073889;27;20093;-67
2022/05/14 10:33:03;;;;;;;15.68;4.07;;;20.50;99.30;;;;;;5106886;27;20054;-66
2022/05/14 10:35:39;;;;;;;21.50;4.38;;;20.50;99.90;;;;;;5117927;27;20162;-67
2022/05/14 10:38:13;;;;;;;18.63;4.57;;;20.60;99.90;;;;;;5095290;27;20047;-66
2022/05/14 10:40:44;;;;;;;23.73;4.65;;;21.00;99.90;;;;;;5099274;27;20050;-67
2022/05/14 10:43:33;;;;;;;17.25;3.85;;;21.40;99.90;;;;;;5087352;27;20070;-66
2022/05/14 10:46:02;;;;;;;22.77;4.97;;;21.50;99.90;;;;;;5101531;27;20393;-67
2022/05/14 10:48:37;;;;;;;16.75;4.35;;;21.40;99.90;;;;;;5102167;27;20352;-67
2022/05/14 10:51:06;;;;;;;18.20;4.95;;;21.30;99.00;;;;;;5117985;27;20039;-66
2022/05/14 10:53:36;;;;;;;18.20;4.43;;;21.30;99.90;;;;;;5096868;27;20100;-66
2022/05/14 10:56:08;;;;;;;22.25;5.05;;;21.60;99.90;;;;;;5099279;27;20129;-66
2022/05/14 10:59:05;;;;;;;22.77;5.32;;;22.00;99.90;;;;;;5118690;27;20043;-67
2022/05/14 11:01:34;;;;;;;22.48;4.43;;;22.30;94.40;;;;;;5092676;28;20133;-66
2022/05/14 11:04:17;;;;;;;22.45;4.22;;;22.60;95.50;;;;;;5076057;28;20044;-67
2022/05/14 11:06:54;;;;;;;21.45;4.95;;;22.90;93.00;;;;;;5065647;28;20494;-67
2022/05/14 11:09:23;;;;;;;16.52;4.00;;;23.10;92.60;;;;;;5082225;28;20062;-68
2022/05/14 11:11:55;;;;;;;21.92;4.55;;;23.20;89.00;;;;;;5076155;28;20416;-66
2022/05/14 11:14:21;;;;;;;17.75;3.97;;;23.40;85.10;;;;;;5092910;28;20048;-67
2022/05/14 11:16:52;;;;;;;22.98;4.88;;;23.30;83.30;;;;;;5066253;28;20396;-66
2022/05/14 11:19:30;;;;;;;19.30;4.55;;;22.90;86.20;;;;;;5081600;28;20452;-66
2022/05/14 11:21:57;;;;;;;20.33;4.28;;;22.40;89.10;;;;;;5102813;28;20040;-67
2022/05/14 11:24:42;;;;;;;20.27;5.05;;;22.00;90.30;;;;;;5089208;27;20432;-69
2022/05/14 11:27:09;;;;;;;16.52;3.78;;;21.70;91.40;;;;;;5075683;28;20040;-69
2022/05/14 11:29:55;;;;;;;21.05;5.82;;;21.50;90.50;;;;;;5098005;28;20040;-68
2022/05/14 11:32:22;;;;;;;18.73;5.85;;;21.20;92.20;;;;;;5080276;28;20044;-68
2022/05/14 11:34:52;;;;;;;18.65;4.22;;;21.00;95.30;;;;;;5093252;28;21146;-67
2022/05/14 11:37:31;;;;;;;16.00;3.80;;;21.20;97.00;;;;;;5078810;28;20059;-69
2022/05/14 11:40:19;;;;;;;18.48;4.32;;;21.50;96.90;;;;;;5093861;28;20050;-68
2022/05/14 11:42:51;;;;;;;16.52;3.90;;;21.70;96.40;;;;;;5101429;28;20038;-68
2022/05/14 11:45:16;;;;;;;15.35;3.88;;;22.00;96.80;;;;;;5081994;28;20055;-71
2022/05/14 11:48:07;;;;;;;17.58;4.18;;;22.20;92.20;;;;;;5083483;28;20036;-68
2022/05/14 11:51:18;;;;;;;16.55;4.20;;;22.10;89.20;;;;;;5101184;28;20035;-69
2022/05/14 11:53:53;;;;;;;17.33;4.65;;;21.80;87.20;;;;;;5043626;28;20462;-70
2022/05/14 11:56:44;;;;;;;18.48;3.88;;;21.80;89.60;;;;;;5041123;28;20045;-70
2022/05/14 11:59:27;;;;;;;18.40;4.28;;;21.80;90.80;;;;;;5067824;28;20420;-70
2022/05/14 12:01:54;;;;;;;20.05;4.38;;;22.00;92.40;;;;;;5101976;28;20056;-70
2022/05/14 12:04:42;;;;;;;18.25;4.10;;;22.10;89.90;;;;;;5085242;28;20042;-69
2022/05/14 12:07:18;;;;;;;18.23;4.05;;;22.30;90.20;;;;;;5098195;28;20146;-70
2022/05/14 12:09:50;;;;;;;17.45;4.18;;;22.60;89.50;;;;;;5061573;28;20051;-70
2022/05/14 12:12:26;;;;;;;15.30;3.72;;;23.00;87.90;;;;;;5093817;28;20055;-70
2022/05/14 12:14:52;;;;;;;21.55;4.55;;;23.30;86.60;;;;;;5089463;28;20244;-69
2022/05/14 12:17:21;;;;;;;18.23;4.47;;;23.60;87.70;;;;;;5064921;28;20047;-68
2022/05/14 12:19:54;;;;;;;19.67;4.25;;;23.90;83.40;;;;;;5094724;27;20051;-69
2022/05/14 12:22:25;;;;;;;20.50;4.45;;;24.10;86.40;;;;;;5079149;28;20044;-69
2022/05/14 12:24:58;;;;;;;17.25;4.80;;;24.30;84.10;;;;;;5080936;28;20072;-68
2022/05/14 12:27:27;;;;;;;20.48;4.40;;;24.40;80.00;;;;;;5064211;28;20051;-68
2022/05/14 12:29:57;;;;;;;20.50;4.53;;;24.60;80.20;;;;;;5078106;28;20063;-68
2022/05/14 12:35:26;;;;;;;18.55;4.50;;;24.40;79.50;;;;;;5080300;28;20067;-67
2022/05/14 12:37:56;;;;;;;17.95;4.20;;;24.10;78.60;;;;;;5088709;28;20040;-69
2022/05/14 12:40:28;;;;;;;16.70;4.22;;;23.70;79.00;;;;;;5068387;28;20035;-68
2022/05/14 12:42:54;;;;;;;18.27;4.22;;;23.20;77.40;;;;;;5072070;28;20044;-69
2022/05/14 12:45:20;;;;;;;21.45;4.03;;;22.80;76.70;;;;;;5072762;28;20880;-70
2022/05/14 12:47:46;;;;;;;21.00;4.20;;;22.30;77.90;;;;;;5070974;28;20472;-70
2022/05/14 12:50:22;;;;;;;21.90;4.53;;;22.00;79.10;;;;;;5073920;28;20404;-70
2022/05/14 12:53:00;;;;;;;22.80;4.88;;;21.70;81.30;;;;;;5052202;28;20051;-68
2022/05/14 12:55:27;;;;;;;19.30;4.40;;;21.50;83.80;;;;;;5072111;28;20043;-69
2022/05/14 12:57:56;;;;;;;16.65;4.28;;;21.20;83.50;;;;;;5071943;28;20374;-68
2022/05/14 13:00:23;;;;;;;17.50;4.07;;;21.10;85.90;;;;;;5081267;28;20051;-71
2022/05/14 13:02:57;;;;;;;18.52;4.15;;;21.00;87.90;;;;;;5099169;28;20071;-71
2022/05/14 13:05:54;;;;;;;19.00;4.10;;;20.90;90.40;;;;;;5093802;28;20444;-72
2022/05/14 13:08:23;;;;;;;18.10;4.78;;;20.80;90.00;;;;;;5103113;28;20039;-72